createdAt,value
2023-01-27T00:01:20.181Z,100615.84
2023-01-27T00:03:49.410Z,100625.69
2023-01-27T00:06:18.598Z,100611.69
2023-01-27T00:08:47.758Z,100610.13
2023-01-27T00:11:34.217Z,100607.38
2023-01-27T00:14:04.413Z,100611.88
2023-01-27T00:16:33.390Z,100617.34
2023-01-27T00:19:02.565Z,100619.59
2023-01-27T00:21:49.030Z,100617.16
2023-01-27T00:24:35.085Z,100623.38
2023-01-27T00:27:04.266Z,100623.16
2023-01-27T00:29:34.746Z,100627.16
2023-01-27T00:32:21.080Z,100620.44
2023-01-27T00:34:49.764Z,100622.41
2023-01-27T00:37:18.783Z,100627.69
2023-01-27T00:39:47.904Z,100620.91
2023-01-27T00:42:17.778Z,100626.72
2023-01-27T00:45:01.959Z,100620.47
2023-01-27T00:47:31.154Z,100620.97
2023-01-27T00:50:00.219Z,100629.09
2023-01-27T00:52:29.028Z,100625.34
2023-01-27T00:54:58.070Z,100620.69
2023-01-27T00:57:27.217Z,100625.03
2023-01-27T00:59:59.720Z,100625.38
2023-01-27T01:02:28.958Z,100623.47
2023-01-27T01:04:58.112Z,100620.50
2023-01-27T01:07:26.966Z,100622.94
2023-01-27T01:09:56.915Z,100628.59
2023-01-27T01:12:26.100Z,100620.53
2023-01-27T01:14:55.284Z,100625.75
2023-01-27T01:17:25.962Z,100627.00
2023-01-27T01:19:54.782Z,100628.16
2023-01-27T01:22:23.885Z,100629.63
2023-01-27T01:24:52.980Z,100630.94
2023-01-27T01:27:22.656Z,100632.91
2023-01-27T01:29:52.546Z,100632.38
2023-01-27T01:32:21.824Z,100623.28
2023-01-27T01:34:52.053Z,100622.97
2023-01-27T01:37:21.136Z,100619.47
2023-01-27T01:39:50.684Z,100625.09
2023-01-27T01:42:19.724Z,100622.03
2023-01-27T01:44:48.781Z,100628.22
2023-01-27T01:47:18.432Z,100630.34
2023-01-27T01:49:48.410Z,100633.28
2023-01-27T01:52:22.922Z,100630.16
2023-01-27T01:54:53.700Z,100633.09
2023-01-27T01:57:25.424Z,100629.69
2023-01-27T01:59:55.997Z,100627.06
2023-01-27T02:02:26.580Z,100639.66
2023-01-27T02:04:57.261Z,100632.28
2023-01-27T02:07:33.205Z,100627.88
2023-01-27T02:10:02.821Z,100625.59
2023-01-27T02:12:32.117Z,100627.97
2023-01-27T02:15:01.480Z,100628.31
2023-01-27T02:17:30.875Z,100623.66
2023-01-27T02:20:02.286Z,100618.00
2023-01-27T02:22:37.945Z,100634.66
2023-01-27T02:25:16.207Z,100630.28
2023-01-27T02:27:46.828Z,100629.28
2023-01-27T02:30:15.937Z,100634.91
2023-01-27T02:32:45.174Z,100632.56
2023-01-27T02:35:18.203Z,100632.50
2023-01-27T02:37:47.417Z,100634.63
2023-01-27T02:40:17.021Z,100631.06
2023-01-27T02:42:47.655Z,100636.66
2023-01-27T02:45:19.288Z,100623.19
2023-01-27T02:47:48.496Z,100636.28
2023-01-27T02:50:18.047Z,100622.81
2023-01-27T02:52:46.740Z,100629.13
2023-01-27T02:55:15.967Z,100638.59
2023-01-27T02:57:46.856Z,100635.84
2023-01-27T03:00:34.990Z,100624.41
2023-01-27T03:03:04.541Z,100627.56
2023-01-27T03:05:33.818Z,100631.25
2023-01-27T03:08:03.002Z,100631.13
2023-01-27T03:10:31.770Z,100635.44
2023-01-27T03:13:02.354Z,100631.22
2023-01-27T03:15:48.935Z,100636.47
2023-01-27T03:18:18.049Z,100632.34
2023-01-27T03:20:48.767Z,100629.41
2023-01-27T03:23:19.540Z,100629.34
2023-01-27T03:25:52.146Z,100633.31
2023-01-27T03:28:22.595Z,100640.56
2023-01-27T03:31:03.462Z,100632.41
2023-01-27T03:33:47.813Z,100630.06
2023-01-27T03:36:45.400Z,100637.22
2023-01-27T03:39:31.962Z,100637.00
2023-01-27T03:42:18.114Z,100633.84
2023-01-27T03:45:06.972Z,100637.66
2023-01-27T03:47:35.965Z,100632.59
2023-01-27T03:50:11.233Z,100632.81
2023-01-27T03:52:39.935Z,100635.53
2023-01-27T03:55:09.936Z,100631.00
2023-01-27T03:57:39.226Z,100638.47
2023-01-27T04:00:11.409Z,100645.09
2023-01-27T04:03:00.250Z,100641.09
2023-01-27T04:05:46.964Z,100645.50
2023-01-27T04:08:15.999Z,100650.44
2023-01-27T04:11:04.723Z,100653.38
2023-01-27T04:13:33.123Z,100661.50
2023-01-27T04:16:03.626Z,100653.28
2023-01-27T04:18:32.745Z,100657.06
2023-01-27T04:21:01.714Z,100656.16
2023-01-27T04:23:30.992Z,100658.88
2023-01-27T04:26:00.474Z,100662.44
2023-01-27T04:28:43.245Z,100657.16
2023-01-27T04:31:14.989Z,100660.72
2023-01-27T04:33:44.699Z,100655.34
2023-01-27T04:36:14.259Z,100652.81
2023-01-27T04:38:43.273Z,100661.53
2023-01-27T04:41:12.640Z,100662.25
2023-01-27T04:43:41.255Z,100652.41
2023-01-27T04:46:10.735Z,100646.00
2023-01-27T04:48:41.188Z,100656.50
2023-01-27T04:51:10.163Z,100652.88
2023-01-27T04:53:39.114Z,100659.50
2023-01-27T04:56:14.091Z,100660.53
2023-01-27T04:58:42.811Z,100657.81
2023-01-27T05:01:11.857Z,100665.31
2023-01-27T05:03:42.391Z,100669.09
2023-01-27T05:06:11.883Z,100677.94
2023-01-27T05:08:41.010Z,100684.94
2023-01-27T05:11:10.164Z,100676.53
2023-01-27T05:13:38.860Z,100683.66
2023-01-27T05:16:12.976Z,100680.28
2023-01-27T05:18:44.053Z,100677.03
2023-01-27T05:21:15.233Z,100682.91
2023-01-27T05:23:44.839Z,100684.19
2023-01-27T05:26:15.778Z,100688.91
2023-01-27T05:28:45.838Z,100687.84
2023-01-27T05:31:18.689Z,100696.25
2023-01-27T05:33:50.121Z,100696.50
2023-01-27T05:36:20.662Z,100697.94
2023-01-27T05:38:49.804Z,100699.22
2023-01-27T05:41:20.314Z,100697.94
2023-01-27T05:43:52.767Z,100701.47
2023-01-27T05:46:23.072Z,100706.72
2023-01-27T05:48:54.765Z,100700.63
2023-01-27T05:51:25.535Z,100698.97
2023-01-27T05:53:55.863Z,100697.38
2023-01-27T05:56:25.674Z,100702.78
2023-01-27T05:58:55.561Z,100703.38
2023-01-27T06:01:26.689Z,100698.34
2023-01-27T06:03:57.281Z,100707.66
2023-01-27T06:06:28.811Z,100701.13
2023-01-27T06:08:57.972Z,100706.50
2023-01-27T06:11:27.287Z,100715.63
2023-01-27T06:13:55.975Z,100712.81
2023-01-27T06:16:25.446Z,100721.41
2023-01-27T06:18:55.230Z,100731.09
2023-01-27T06:21:25.785Z,100726.19
2023-01-27T06:23:56.033Z,100733.00
2023-01-27T06:26:25.399Z,100739.00
2023-01-27T06:28:54.117Z,100739.81
2023-01-27T06:31:23.506Z,100743.13
2023-01-27T06:33:52.824Z,100742.81
2023-01-27T06:36:23.341Z,100745.97
2023-01-27T06:38:53.769Z,100753.88
2023-01-27T06:41:22.847Z,100751.34
2023-01-27T06:43:51.666Z,100754.94
2023-01-27T06:46:20.792Z,100749.44
2023-01-27T06:48:49.833Z,100750.41
2023-01-27T06:51:18.957Z,100757.75
2023-01-27T06:53:48.019Z,100751.22
2023-01-27T06:56:18.473Z,100753.44
2023-01-27T06:58:47.089Z,100759.13
2023-01-27T07:01:16.155Z,100759.31
2023-01-27T07:03:45.521Z,100763.44
2023-01-27T07:06:16.341Z,100758.09
2023-01-27T07:08:47.200Z,100755.16
2023-01-27T07:11:17.828Z,100749.56
2023-01-27T07:13:46.132Z,100755.09
2023-01-27T07:16:15.308Z,100750.06
2023-01-27T07:18:44.455Z,100747.66
2023-01-27T07:21:14.003Z,100761.97
2023-01-27T07:23:43.120Z,100759.31
2023-01-27T07:26:24.300Z,100762.69
2023-01-27T07:28:57.116Z,100752.97
2023-01-27T07:31:26.424Z,100756.97
2023-01-27T07:33:55.607Z,100759.06
2023-01-27T07:36:24.777Z,100763.63
2023-01-27T07:38:53.964Z,100757.50
2023-01-27T07:41:25.007Z,100760.06
2023-01-27T07:43:55.340Z,100757.84
2023-01-27T07:46:26.944Z,100761.81
2023-01-27T07:48:56.055Z,100762.47
2023-01-27T07:51:25.192Z,100765.84
2023-01-27T07:53:54.532Z,100765.28
2023-01-27T07:56:23.569Z,100770.03
2023-01-27T07:58:56.677Z,100766.22
2023-01-27T08:01:26.015Z,100758.06
2023-01-27T08:03:55.302Z,100757.84
2023-01-27T08:06:24.820Z,100762.88
2023-01-27T08:08:54.018Z,100769.63
2023-01-27T08:11:23.235Z,100762.78
2023-01-27T08:13:52.216Z,100763.78
2023-01-27T08:16:22.974Z,100765.03
2023-01-27T08:18:54.011Z,100761.56
2023-01-27T08:21:23.381Z,100765.75
2023-01-27T08:23:52.957Z,100756.72
2023-01-27T08:26:22.417Z,100768.19
2023-01-27T08:28:51.300Z,100763.69
2023-01-27T08:31:20.398Z,100773.78
2023-01-27T08:33:54.900Z,100770.06
2023-01-27T08:36:26.606Z,100770.69
2023-01-27T08:38:55.702Z,100774.84
2023-01-27T08:41:26.496Z,100777.44
2023-01-27T08:43:55.731Z,100778.59
2023-01-27T08:46:25.246Z,100777.66
2023-01-27T08:48:55.852Z,100777.47
2023-01-27T08:51:24.976Z,100772.25
2023-01-27T08:53:57.016Z,100775.66
2023-01-27T08:56:26.244Z,100779.34
2023-01-27T08:58:56.749Z,100779.28
2023-01-27T09:01:25.805Z,100783.25
2023-01-27T09:03:57.955Z,100785.59
2023-01-27T09:06:27.197Z,100785.03
2023-01-27T09:09:11.744Z,100788.59
2023-01-27T09:11:42.843Z,100796.81
2023-01-27T09:14:12.914Z,100795.94
2023-01-27T09:16:41.592Z,100796.56
2023-01-27T09:19:12.098Z,100792.72
2023-01-27T09:21:41.110Z,100800.13
2023-01-27T09:24:10.173Z,100787.31
2023-01-27T09:26:39.283Z,100787.31
2023-01-27T09:29:08.257Z,100789.94
2023-01-27T09:31:37.003Z,100791.25
2023-01-27T09:34:06.099Z,100787.72
2023-01-27T09:36:41.794Z,100782.38
2023-01-27T09:39:11.236Z,100778.34
2023-01-27T09:42:01.009Z,100775.78
2023-01-27T09:44:50.423Z,100785.16
2023-01-27T09:47:30.531Z,100783.00
2023-01-27T09:50:17.965Z,100775.31
2023-01-27T09:53:02.688Z,100772.22
2023-01-27T09:55:37.248Z,100769.22
2023-01-27T09:58:11.140Z,100762.88
2023-01-27T10:00:47.770Z,100782.22
2023-01-27T10:03:27.557Z,100771.56
2023-01-27T10:06:26.349Z,100776.38
2023-01-27T10:09:08.337Z,100772.00
2023-01-27T10:11:42.767Z,100773.00
2023-01-27T10:14:20.328Z,100779.94
2023-01-27T10:16:58.792Z,100784.22
2023-01-27T10:19:47.706Z,100787.38
2023-01-27T10:22:20.622Z,100787.56
2023-01-27T10:25:02.030Z,100794.06
2023-01-27T10:27:36.994Z,100796.19
2023-01-27T10:30:13.795Z,100801.91
2023-01-27T10:32:46.523Z,100807.03
2023-01-27T10:35:18.976Z,100808.63
2023-01-27T10:37:56.565Z,100804.44
2023-01-27T10:40:33.295Z,100801.22
2023-01-27T10:43:05.967Z,100821.28
2023-01-27T10:45:40.002Z,100814.66
2023-01-27T10:48:27.744Z,100816.22
2023-01-27T10:50:59.702Z,100817.56
2023-01-27T10:53:32.891Z,100812.41
2023-01-27T10:56:08.748Z,100816.31
2023-01-27T10:58:45.600Z,100821.59
2023-01-27T11:01:21.490Z,100818.63
2023-01-27T11:03:55.168Z,100815.63
2023-01-27T11:06:25.780Z,100810.13
2023-01-27T11:08:57.349Z,100812.06
2023-01-27T11:11:46.317Z,100813.03
2023-01-27T11:14:19.234Z,100812.78
2023-01-27T11:16:51.437Z,100812.03
2023-01-27T11:19:35.343Z,100805.75
2023-01-27T11:22:08.713Z,100800.28
2023-01-27T11:24:45.331Z,100795.19
2023-01-27T11:27:24.430Z,100800.19
2023-01-27T11:29:57.377Z,100793.59
2023-01-27T11:32:36.130Z,100788.69
2023-01-27T11:35:09.768Z,100792.00
2023-01-27T11:37:40.620Z,100791.09
2023-01-27T11:40:17.403Z,100793.66
2023-01-27T11:42:48.081Z,100783.38
2023-01-27T11:45:18.596Z,100785.50
2023-01-27T11:47:49.128Z,100786.81
2023-01-27T11:50:20.804Z,100785.97
2023-01-27T11:52:51.153Z,100793.03
2023-01-27T11:55:22.557Z,100791.59
2023-01-27T11:57:55.471Z,100787.59
2023-01-27T12:00:27.106Z,100787.72
2023-01-27T12:03:02.761Z,100792.09
2023-01-27T12:05:35.307Z,100784.31
2023-01-27T12:08:05.912Z,100783.84
2023-01-27T12:10:35.051Z,100781.19
2023-01-27T12:13:11.261Z,100783.13
2023-01-27T12:15:49.033Z,100785.06
2023-01-27T12:18:18.704Z,100787.72
2023-01-27T12:20:49.117Z,100784.22
2023-01-27T12:23:20.784Z,100787.09
2023-01-27T12:25:52.461Z,100780.97
2023-01-27T12:28:32.006Z,100784.19
2023-01-27T12:31:06.671Z,100789.84
2023-01-27T12:33:37.935Z,100782.50
2023-01-27T12:36:14.329Z,100775.06
2023-01-27T12:38:47.583Z,100785.88
2023-01-27T12:41:22.757Z,100785.38
2023-01-27T12:43:55.706Z,100776.00
2023-01-27T12:46:26.514Z,100779.78
2023-01-27T12:49:02.761Z,100787.06
2023-01-27T12:51:41.967Z,100789.91
2023-01-27T12:54:18.754Z,100793.50
2023-01-27T12:56:47.847Z,100792.72
2023-01-27T12:59:19.732Z,100805.22
2023-01-27T13:01:59.679Z,100798.06
2023-01-27T13:04:31.477Z,100799.72
2023-01-27T13:07:07.860Z,100792.34
2023-01-27T13:09:39.329Z,100796.19
2023-01-27T13:12:20.669Z,100786.19
2023-01-27T13:14:55.082Z,100787.69
2023-01-27T13:17:34.292Z,100785.88
2023-01-27T13:20:06.038Z,100784.28
2023-01-27T13:22:41.982Z,100783.03
2023-01-27T13:25:18.085Z,100780.38
2023-01-27T13:27:48.263Z,100795.09
2023-01-27T13:30:24.281Z,100794.22
2023-01-27T13:32:55.212Z,100793.75
2023-01-27T13:35:27.774Z,100791.66
2023-01-27T13:38:02.432Z,100798.50
2023-01-27T13:40:35.627Z,100797.91
2023-01-27T13:43:09.551Z,100797.88
2023-01-27T13:45:42.409Z,100802.69
2023-01-27T13:48:16.128Z,100791.72
2023-01-27T13:50:47.422Z,100800.75
2023-01-27T13:53:18.905Z,100807.25
2023-01-27T13:55:52.470Z,100810.97
2023-01-27T13:58:30.224Z,100812.91
2023-01-27T14:01:07.490Z,100811.66
2023-01-27T14:04:04.230Z,100814.88
2023-01-27T14:06:42.420Z,100817.41
2023-01-27T14:09:38.198Z,100815.72
2023-01-27T14:12:20.406Z,100813.84
2023-01-27T14:14:59.298Z,100816.72
2023-01-27T14:17:45.205Z,100822.50
2023-01-27T14:20:33.515Z,100817.94
2023-01-27T14:23:14.288Z,100814.44
2023-01-27T14:25:48.356Z,100811.69
2023-01-27T14:28:25.444Z,100819.81
2023-01-27T14:30:58.328Z,100819.56
2023-01-27T14:33:39.309Z,100824.78
2023-01-27T14:36:15.704Z,100821.88
2023-01-27T14:38:49.262Z,100821.66
2023-01-27T14:41:25.745Z,100824.91
2023-01-27T14:44:01.655Z,100816.28
2023-01-27T14:46:41.900Z,100820.66
2023-01-27T14:49:13.501Z,100819.91
2023-01-27T14:51:49.778Z,100819.81
2023-01-27T14:54:29.166Z,100821.66
2023-01-27T14:57:13.535Z,100828.31
2023-01-27T14:59:48.925Z,100826.38
2023-01-27T15:02:29.534Z,100831.66
2023-01-27T15:05:00.731Z,100838.38
2023-01-27T15:07:36.082Z,100823.47
2023-01-27T15:10:16.542Z,100827.53
2023-01-27T15:13:08.960Z,100823.69
2023-01-27T15:16:11.217Z,100826.50
2023-01-27T15:19:02.676Z,100831.25
2023-01-27T15:21:58.190Z,100824.53
2023-01-27T15:24:51.309Z,100825.78
2023-01-27T15:27:21.220Z,100837.56
2023-01-27T15:29:50.781Z,100833.41
2023-01-27T15:32:31.986Z,100841.69
2023-01-27T15:35:31.650Z,100841.66
2023-01-27T15:38:10.363Z,100841.38
2023-01-27T15:41:00.314Z,100846.84
2023-01-27T15:43:31.255Z,100842.75
2023-01-27T15:46:20.499Z,100849.16
2023-01-27T15:48:49.692Z,100846.31
2023-01-27T15:51:20.797Z,100850.53
2023-01-27T15:53:54.711Z,100851.34
2023-01-27T15:56:41.793Z,100852.50
2023-01-27T15:59:16.315Z,100844.94
2023-01-27T16:01:45.439Z,100854.63
2023-01-27T16:04:17.156Z,100856.84
2023-01-27T16:06:48.352Z,100850.94
2023-01-27T16:09:24.711Z,100863.66
2023-01-27T16:12:02.158Z,100860.47
2023-01-27T16:14:45.535Z,100855.59
2023-01-27T16:17:26.832Z,100862.81
2023-01-27T16:20:04.053Z,100863.16
2023-01-27T16:22:35.158Z,100862.50
2023-01-27T16:25:20.648Z,100872.81
2023-01-27T16:27:55.636Z,100866.72
2023-01-27T16:30:27.008Z,100868.16
2023-01-27T16:33:06.332Z,100869.84
2023-01-27T16:35:41.993Z,100867.66
2023-01-27T16:38:21.835Z,100870.56
2023-01-27T16:40:54.365Z,100867.31
2023-01-27T16:43:25.549Z,100874.66
2023-01-27T16:45:55.589Z,100875.22
2023-01-27T16:48:29.300Z,100879.75
2023-01-27T16:51:09.587Z,100880.06
2023-01-27T16:53:38.513Z,100877.88
2023-01-27T16:56:20.407Z,100881.66
2023-01-27T16:58:50.997Z,100876.72
2023-01-27T17:01:26.657Z,100878.19
2023-01-27T17:04:04.869Z,100882.34
2023-01-27T17:06:40.147Z,100881.97
2023-01-27T17:09:21.531Z,100881.28
2023-01-27T17:11:53.786Z,100883.88
2023-01-27T17:14:31.647Z,100874.19
2023-01-27T17:17:02.870Z,100871.78
2023-01-27T17:19:34.207Z,100881.66
2023-01-27T17:22:05.053Z,100882.22
2023-01-27T17:24:35.810Z,100876.44
2023-01-27T17:27:09.159Z,100889.25
2023-01-27T17:29:39.906Z,100894.84
2023-01-27T17:32:21.698Z,100892.41
2023-01-27T17:34:50.929Z,100893.38
2023-01-27T17:37:21.566Z,100888.63
2023-01-27T17:39:54.597Z,100887.47
2023-01-27T17:42:27.283Z,100883.91
2023-01-27T17:44:56.302Z,100883.66
2023-01-27T17:47:25.399Z,100886.41
2023-01-27T17:49:54.117Z,100892.09
2023-01-27T17:52:25.147Z,100888.19
2023-01-27T17:54:54.200Z,100889.53
2023-01-27T17:57:26.586Z,100897.25
2023-01-27T18:00:01.032Z,100896.09
2023-01-27T18:02:32.251Z,100902.00
2023-01-27T18:05:03.147Z,100897.34
2023-01-27T18:07:32.430Z,100905.44
2023-01-27T18:10:01.899Z,100909.16
2023-01-27T18:12:34.857Z,100907.25
2023-01-27T18:15:34.821Z,100895.38
2023-01-27T18:18:05.039Z,100905.03
2023-01-27T18:20:36.152Z,100905.16
2023-01-27T18:23:08.043Z,100895.06
2023-01-27T18:25:36.780Z,100896.28
2023-01-27T18:28:07.590Z,100903.88
2023-01-27T18:30:36.759Z,100902.63
2023-01-27T18:33:07.200Z,100910.41
2023-01-27T18:35:36.442Z,100904.63
2023-01-27T18:38:21.361Z,100906.63
2023-01-27T18:40:50.100Z,100919.25
2023-01-27T18:43:20.532Z,100917.25
2023-01-27T18:45:50.611Z,100918.53
2023-01-27T18:48:19.673Z,100920.72
2023-01-27T18:50:50.387Z,100924.31
2023-01-27T18:53:20.739Z,100924.31
2023-01-27T18:55:50.194Z,100930.81
2023-01-27T18:58:21.949Z,100927.88
2023-01-27T19:00:53.114Z,100928.63
2023-01-27T19:03:24.023Z,100937.78
2023-01-27T19:05:53.599Z,100940.09
2023-01-27T19:08:23.889Z,100946.09
2023-01-27T19:10:53.205Z,100946.72
2023-01-27T19:13:24.352Z,100943.47
2023-01-27T19:15:55.718Z,100951.91
2023-01-27T19:18:27.763Z,100948.31
2023-01-27T19:20:56.857Z,100956.41
2023-01-27T19:23:25.877Z,100951.97
2023-01-27T19:25:55.895Z,100951.28
2023-01-27T19:28:30.051Z,100954.53
2023-01-27T19:31:00.273Z,100960.94
2023-01-27T19:33:32.581Z,100963.03
2023-01-27T19:36:04.015Z,100965.72
2023-01-27T19:38:33.418Z,100963.56
2023-01-27T19:41:02.429Z,100965.75
2023-01-27T19:43:32.473Z,100966.09
2023-01-27T19:46:01.591Z,100960.50
2023-01-27T19:48:30.623Z,100977.69
2023-01-27T19:50:59.644Z,100979.28
2023-01-27T19:53:28.612Z,100975.06
2023-01-27T19:55:59.046Z,100974.72
2023-01-27T19:58:29.442Z,100974.50
2023-01-27T20:00:59.711Z,100979.06
2023-01-27T20:03:30.975Z,100980.31
2023-01-27T20:05:59.950Z,100985.59
2023-01-27T20:08:28.996Z,100982.63
2023-01-27T20:10:58.128Z,100987.78
2023-01-27T20:13:26.755Z,100988.56
2023-01-27T20:15:55.905Z,100997.38
2023-01-27T20:18:26.308Z,100991.66
2023-01-27T20:20:55.349Z,100999.09
2023-01-27T20:23:24.290Z,101001.97
2023-01-27T20:25:54.099Z,100998.72
2023-01-27T20:28:23.254Z,101000.78
2023-01-27T20:30:52.296Z,101006.25
2023-01-27T20:33:21.326Z,101006.03
2023-01-27T20:35:51.784Z,101007.25
2023-01-27T20:38:20.778Z,101006.16
2023-01-27T20:40:49.453Z,101007.75
2023-01-27T20:43:33.754Z,101004.34
2023-01-27T20:46:05.526Z,101002.56
2023-01-27T20:48:34.723Z,101007.59
2023-01-27T20:51:06.596Z,101005.97
2023-01-27T20:53:37.411Z,101013.50
2023-01-27T20:56:06.833Z,101007.19
2023-01-27T20:58:35.875Z,101016.09
2023-01-27T21:01:08.149Z,101001.75
2023-01-27T21:03:38.192Z,101006.84
2023-01-27T21:06:09.907Z,101001.56
2023-01-27T21:08:39.071Z,101001.19
2023-01-27T21:11:11.387Z,101008.56
2023-01-27T21:13:40.343Z,101010.41
2023-01-27T21:16:09.613Z,101004.78
2023-01-27T21:18:38.822Z,101004.44
2023-01-27T21:21:09.405Z,100999.94
2023-01-27T21:23:39.644Z,101002.91
2023-01-27T21:26:09.787Z,101008.69
2023-01-27T21:28:38.465Z,101003.63
2023-01-27T21:31:08.356Z,101012.28
2023-01-27T21:33:38.352Z,101001.09
2023-01-27T21:36:10.919Z,101000.84
2023-01-27T21:38:40.372Z,101004.84
2023-01-27T21:41:12.198Z,101004.84
2023-01-27T21:43:58.341Z,100995.13
2023-01-27T21:46:27.454Z,100998.63
2023-01-27T21:48:56.474Z,100993.66
2023-01-27T21:51:26.880Z,101000.47
2023-01-27T21:53:56.008Z,100996.22
2023-01-27T21:56:25.049Z,101001.75
2023-01-27T21:58:53.767Z,100996.59
2023-01-27T22:01:22.764Z,100989.59
2023-01-27T22:03:51.778Z,100983.50
2023-01-27T22:06:20.730Z,100977.81
2023-01-27T22:08:52.653Z,100979.84
2023-01-27T22:11:21.893Z,100978.47
2023-01-27T22:13:50.479Z,100984.38
2023-01-27T22:16:20.225Z,100976.81
2023-01-27T22:18:49.283Z,100973.03
2023-01-27T22:21:18.219Z,100972.81
2023-01-27T22:23:47.973Z,100969.44
2023-01-27T22:26:20.628Z,100965.13
2023-01-27T22:28:49.308Z,100976.44
2023-01-27T22:31:18.219Z,100973.84
2023-01-27T22:33:47.160Z,100982.84
2023-01-27T22:36:16.111Z,100984.38
2023-01-27T22:38:45.119Z,100986.97
2023-01-27T22:41:14.185Z,100980.75
2023-01-27T22:43:44.262Z,100980.63
2023-01-27T22:46:13.232Z,100972.44
2023-01-27T22:48:42.257Z,100978.00
2023-01-27T22:51:11.273Z,100973.47
2023-01-27T22:53:40.236Z,100964.41
2023-01-27T22:56:09.940Z,100968.16
2023-01-27T22:58:39.774Z,100972.84
2023-01-27T23:01:10.323Z,100967.00
2023-01-27T23:03:39.354Z,100962.31
2023-01-27T23:06:09.328Z,100970.59
2023-01-27T23:08:38.749Z,100963.22
2023-01-27T23:11:08.899Z,100965.47
2023-01-27T23:13:38.873Z,100961.34
2023-01-27T23:16:09.995Z,100959.47
2023-01-27T23:18:39.091Z,100968.16
2023-01-27T23:21:09.356Z,100961.84
2023-01-27T23:23:38.448Z,100959.66
2023-01-27T23:26:08.725Z,100961.97
2023-01-27T23:28:38.751Z,100957.25
2023-01-27T23:31:10.855Z,100961.47
2023-01-27T23:33:41.248Z,100957.44
2023-01-27T23:36:11.549Z,100960.47
2023-01-27T23:38:40.247Z,100959.34
2023-01-27T23:41:12.698Z,100956.91
2023-01-27T23:43:42.622Z,100962.75
2023-01-27T23:46:13.789Z,100958.78
2023-01-27T23:48:42.818Z,100956.75
2023-01-27T23:51:14.393Z,100959.91
2023-01-27T23:53:43.436Z,100953.38
2023-01-27T23:56:13.560Z,100961.47
2023-01-27T23:58:42.347Z,100961.72
